sensor_id;sensor_type;location;lat;lon;timestamp;pressure;altitude;pressure_sealevel;temperature;humidity
51452;BME280;37521;52.020;-1.740;2024-03-22T00:00:27;100234.56;;;7.18;100.00
51452;BME280;37521;52.020;-1.740;2024-03-22T00:02:55;100247.75;;;7.15;100.00
51452;BME280;37521;52.020;-1.740;2024-03-22T00:05:21;100239.97;;;7.12;100.00
51452;BME280;37521;52.020;-1.740;2024-03-22T00:07:49;100242.59;;;7.12;100.00
51452;BME280;37521;52.020;-1.740;2024-03-22T00:10:15;100233.00;;;7.10;100.00
51452;BME280;37521;52.020;-1.740;2024-03-22T00:12:43;100226.84;;;7.12;100.00
51452;BME280;37521;52.020;-1.740;2024-03-22T00:15:10;100224.22;;;7.12;100.00
51452;BME280;37521;52.020;-1.740;2024-03-22T00:17:38;100209.50;;;7.06;100.00
51452;BME280;37521;52.020;-1.740;2024-03-22T00:20:06;100213.91;;;7.05;100.00
51452;BME280;37521;52.020;-1.740;2024-03-22T00:22:34;100213.03;;;7.05;100.00
51452;BME280;37521;52.020;-1.740;2024-03-22T00:25:00;100206.06;;;7.04;100.00
51452;BME280;37521;52.020;-1.740;2024-03-22T00:27:28;100212.19;;;7.04;100.00
51452;BME280;37521;52.020;-1.740;2024-03-22T00:29:54;100193.00;;;7.02;100.00
51452;BME280;37521;52.020;-1.740;2024-03-22T00:32:23;100212.19;;;7.04;100.00
51452;BME280;37521;52.020;-1.740;2024-03-22T00:34:49;100192.88;;;7.05;100.00
51452;BME280;37521;52.020;-1.740;2024-03-22T00:37:17;100187.63;;;7.05;100.00
51452;BME280;37521;52.020;-1.740;2024-03-22T00:39:43;100184.22;;;7.03;100.00
51452;BME280;37521;52.020;-1.740;2024-03-22T00:42:11;100178.00;;;7.06;100.00
51452;BME280;37521;52.020;-1.740;2024-03-22T00:44:37;100176.19;;;7.08;100.00
51452;BME280;37521;52.020;-1.740;2024-03-22T00:47:05;100182.22;;;7.12;100.00
51452;BME280;37521;52.020;-1.740;2024-03-22T00:49:33;100177.75;;;7.14;100.00
51452;BME280;37521;52.020;-1.740;2024-03-22T00:52:00;100170.78;;;7.13;100.00
51452;BME280;37521;52.020;-1.740;2024-03-22T00:54:27;100165.53;;;7.13;100.00
51452;BME280;37521;52.020;-1.740;2024-03-22T00:56:54;100154.13;;;7.14;100.00
51452;BME280;37521;52.020;-1.740;2024-03-22T00:59:20;100153.28;;;7.13;100.00
51452;BME280;37521;52.020;-1.740;2024-03-22T01:01:48;100169.84;;;7.15;100.00
51452;BME280;37521;52.020;-1.740;2024-03-22T01:04:14;100166.34;;;7.15;100.00
51452;BME280;37521;52.020;-1.740;2024-03-22T01:06:43;100154.13;;;7.14;100.00
51452;BME280;37521;52.020;-1.740;2024-03-22T01:09:10;100149.78;;;7.13;100.00
51452;BME280;37521;52.020;-1.740;2024-03-22T01:11:37;100172.63;;;7.10;100.00
51452;BME280;37521;52.020;-1.740;2024-03-22T01:14:03;100175.28;;;7.09;100.00
51452;BME280;37521;52.020;-1.740;2024-03-22T01:16:32;100164.81;;;7.07;100.00
51452;BME280;37521;52.020;-1.740;2024-03-22T01:18:58;100165.66;;;7.08;100.00
51452;BME280;37521;52.020;-1.740;2024-03-22T01:21:25;100174.41;;;7.08;100.00
51452;BME280;37521;52.020;-1.740;2024-03-22T01:23:53;100180.50;;;7.10;100.00
51452;BME280;37521;52.020;-1.740;2024-03-22T01:26:21;100176.16;;;7.09;100.00
51452;BME280;37521;52.020;-1.740;2024-03-22T01:28:47;100187.47;;;7.12;100.00
51452;BME280;37521;52.020;-1.740;2024-03-22T01:31:14;100183.94;;;7.13;100.00
51452;BME280;37521;52.020;-1.740;2024-03-22T01:33:42;100193.53;;;7.14;100.00
51452;BME280;37521;52.020;-1.740;2024-03-22T01:36:09;100192.59;;;7.15;100.00
51452;BME280;37521;52.020;-1.740;2024-03-22T01:38:35;100196.94;;;7.17;100.00
51452;BME280;37521;52.020;-1.740;2024-03-22T01:41:04;100199.50;;;7.19;100.00
51452;BME280;37521;52.020;-1.740;2024-03-22T01:43:31;100198.66;;;7.18;100.00
51452;BME280;37521;52.020;-1.740;2024-03-22T01:45:58;100199.50;;;7.19;100.00
51452;BME280;37521;52.020;-1.740;2024-03-22T01:48:24;100196.03;;;7.18;100.00
51452;BME280;37521;52.020;-1.740;2024-03-22T01:50:52;100192.47;;;7.19;100.00
51452;BME280;37521;52.020;-1.740;2024-03-22T01:53:18;100203.03;;;7.18;100.00
51452;BME280;37521;52.020;-1.740;2024-03-22T01:55:47;100197.00;;;7.14;100.00
51452;BME280;37521;52.020;-1.740;2024-03-22T01:58:16;100183.16;;;7.09;100.00
51452;BME280;37521;52.020;-1.740;2024-03-22T02:00:44;100187.63;;;7.05;100.00
51452;BME280;37521;52.020;-1.740;2024-03-22T02:03:10;100187.75;;;7.02;100.00
51452;BME280;37521;52.020;-1.740;2024-03-22T02:05:37;100186.84;;;7.03;100.00
51452;BME280;37521;52.020;-1.740;2024-03-22T02:08:05;100174.63;;;7.01;100.00
51452;BME280;37521;52.020;-1.740;2024-03-22T02:10:32;100185.19;;;6.99;100.00
51452;BME280;37521;52.020;-1.740;2024-03-22T02:12:58;100172.06;;;6.99;100.00
51452;BME280;37521;52.020;-1.740;2024-03-22T02:15:27;100172.97;;;6.98;100.00
51452;BME280;37521;52.020;-1.740;2024-03-22T02:17:54;100186.16;;;6.97;100.00
51452;BME280;37521;52.020;-1.740;2024-03-22T02:20:21;100183.59;;;6.94;100.00
51452;BME280;37521;52.020;-1.740;2024-03-22T02:22:47;100189.69;;;6.94;100.00
51452;BME280;37521;52.020;-1.740;2024-03-22T02:25:16;100186.16;;;6.95;100.00
51452;BME280;37521;52.020;-1.740;2024-03-22T02:27:43;100180.91;;;6.97;100.00
51452;BME280;37521;52.020;-1.740;2024-03-22T02:30:10;100169.53;;;6.96;100.00
51452;BME280;37521;52.020;-1.740;2024-03-22T02:32:37;100169.38;;;7.01;100.00
51452;BME280;37521;52.020;-1.740;2024-03-22T02:35:06;100164.91;;;7.04;100.00
51452;BME280;37521;52.020;-1.740;2024-03-22T02:37:32;100163.03;;;7.09;100.00
51452;BME280;37521;52.020;-1.740;2024-03-22T02:40:00;100150.59;;;7.15;100.00
51452;BME280;37521;52.020;-1.740;2024-03-22T02:42:28;100148.81;;;7.17;100.00
51452;BME280;37521;52.020;-1.740;2024-03-22T02:44:55;100150.53;;;7.18;100.00
51452;BME280;37521;52.020;-1.740;2024-03-22T02:47:22;100145.28;;;7.18;100.00
51452;BME280;37521;52.020;-1.740;2024-03-22T02:49:49;100137.34;;;7.19;100.00
51452;BME280;37521;52.020;-1.740;2024-03-22T02:52:15;100132.94;;;7.20;100.00
51452;BME280;37521;52.020;-1.740;2024-03-22T02:54:43;100129.41;;;7.21;100.00
51452;BME280;37521;52.020;-1.740;2024-03-22T02:57:09;100133.75;;;7.22;100.00
51452;BME280;37521;52.020;-1.740;2024-03-22T02:59:38;100131.09;;;7.23;100.00
51452;BME280;37521;52.020;-1.740;2024-03-22T03:02:04;100125.78;;;7.25;100.00
51452;BME280;37521;52.020;-1.740;2024-03-22T03:04:32;100123.06;;;7.28;100.00
51452;BME280;37521;52.020;-1.740;2024-03-22T03:06:59;100120.44;;;7.28;100.00
51452;BME280;37521;52.020;-1.740;2024-03-22T03:09:27;100121.28;;;7.28;100.00
51452;BME280;37521;52.020;-1.740;2024-03-22T03:11:53;100123.03;;;7.29;100.00
51452;BME280;37521;52.020;-1.740;2024-03-22T03:14:20;100128.22;;;7.31;100.00
51452;BME280;37521;52.020;-1.740;2024-03-22T03:16:48;100115.00;;;7.34;100.00
51452;BME280;37521;52.020;-1.740;2024-03-22T03:19:16;100114.06;;;7.36;100.00
51452;BME280;37521;52.020;-1.740;2024-03-22T03:21:42;100109.66;;;7.37;100.00
51452;BME280;37521;52.020;-1.740;2024-03-22T03:24:09;100110.47;;;7.39;100.00
51452;BME280;37521;52.020;-1.740;2024-03-22T03:26:36;100112.16;;;7.40;100.00
51452;BME280;37521;52.020;-1.740;2024-03-22T03:29:03;100112.13;;;7.42;100.00
51452;BME280;37521;52.020;-1.740;2024-03-22T03:31:29;100110.31;;;7.44;100.00
51452;BME280;37521;52.020;-1.740;2024-03-22T03:33:58;100107.63;;;7.45;100.00
51452;BME280;37521;52.020;-1.740;2024-03-22T03:36:24;100103.25;;;7.46;100.00
51452;BME280;37521;52.020;-1.740;2024-03-22T03:38:52;100101.38;;;7.49;100.00
51452;BME280;37521;52.020;-1.740;2024-03-22T03:41:18;100094.25;;;7.53;100.00
51452;BME280;37521;52.020;-1.740;2024-03-22T03:43:46;100097.69;;;7.55;100.00
51452;BME280;37521;52.020;-1.740;2024-03-22T03:46:12;100096.75;;;7.57;100.00
51452;BME280;37521;52.020;-1.740;2024-03-22T03:48:40;100093.19;;;7.58;100.00
51452;BME280;37521;52.020;-1.740;2024-03-22T03:51:07;100098.41;;;7.60;100.00
51452;BME280;37521;52.020;-1.740;2024-03-22T03:53:35;100095.72;;;7.61;100.00
51452;BME280;37521;52.020;-1.740;2024-03-22T03:56:01;100099.16;;;7.63;100.00
51452;BME280;37521;52.020;-1.740;2024-03-22T03:58:29;100096.44;;;7.67;100.00
51452;BME280;37521;52.020;-1.740;2024-03-22T04:00:55;100086.63;;;7.72;100.00
51452;BME280;37521;52.020;-1.740;2024-03-22T04:03:23;100090.88;;;7.76;100.00
51452;BME280;37521;52.020;-1.740;2024-03-22T04:05:56;100082.09;;;7.77;100.00
51452;BME280;37521;52.020;-1.740;2024-03-22T04:08:25;100084.72;;;7.77;100.00
51452;BME280;37521;52.020;-1.740;2024-03-22T04:10:52;100093.34;;;7.80;100.00
51452;BME280;37521;52.020;-1.740;2024-03-22T04:13:22;100094.09;;;7.84;100.00
51452;BME280;37521;52.020;-1.740;2024-03-22T04:15:48;100087.13;;;7.83;100.00
51452;BME280;37521;52.020;-1.740;2024-03-22T04:18:16;100083.66;;;7.82;100.00
51452;BME280;37521;52.020;-1.740;2024-03-22T04:20:42;100083.66;;;7.82;100.00
51452;BME280;37521;52.020;-1.740;2024-03-22T04:23:10;100082.75;;;7.82;100.00
51452;BME280;37521;52.020;-1.740;2024-03-22T04:25:37;100091.63;;;7.79;100.00
51452;BME280;37521;52.020;-1.740;2024-03-22T04:28:05;100090.81;;;7.77;100.00
51452;BME280;37521;52.020;-1.740;2024-03-22T04:30:31;100089.06;;;7.78;100.00
51452;BME280;37521;52.020;-1.740;2024-03-22T04:32:59;100092.53;;;7.78;100.00
51452;BME280;37521;52.020;-1.740;2024-03-22T04:35:25;100101.28;;;7.79;100.00
51452;BME280;37521;52.020;-1.740;2024-03-22T04:37:52;100100.44;;;7.78;100.00
51452;BME280;37521;52.020;-1.740;2024-03-22T04:40:20;100100.47;;;7.77;100.00
51452;BME280;37521;52.020;-1.740;2024-03-22T04:42:49;100099.66;;;7.75;100.00
51452;BME280;37521;52.020;-1.740;2024-03-22T04:45:16;100092.69;;;7.74;100.00
51452;BME280;37521;52.020;-1.740;2024-03-22T04:47:43;100093.66;;;7.71;100.00
51452;BME280;37521;52.020;-1.740;2024-03-22T04:50:10;100113.81;;;7.71;100.00
51452;BME280;37521;52.020;-1.740;2024-03-22T04:52:39;100106.84;;;7.70;100.00
51452;BME280;37521;52.020;-1.740;2024-03-22T04:55:06;100107.78;;;7.67;100.00
51452;BME280;37521;52.020;-1.740;2024-03-22T04:57:33;100106.94;;;7.67;100.00
51452;BME280;37521;52.020;-1.740;2024-03-22T05:00:01;100108.75;;;7.64;100.00
51452;BME280;37521;52.020;-1.740;2024-03-22T05:02:29;100108.75;;;7.64;100.00
51452;BME280;37521;52.020;-1.740;2024-03-22T05:04:55;100107.97;;;7.62;100.00
51452;BME280;37521;52.020;-1.740;2024-03-22T05:07:23;100104.44;;;7.62;100.00
51452;BME280;37521;52.020;-1.740;2024-03-22T05:09:49;100112.38;;;7.60;100.00
51452;BME280;37521;52.020;-1.740;2024-03-22T05:12:17;100107.25;;;7.57;100.00
51452;BME280;37521;52.020;-1.740;2024-03-22T05:14:44;100105.63;;;7.53;100.00
51452;BME280;37521;52.020;-1.740;2024-03-22T05:17:13;100110.97;;;7.50;100.00
51452;BME280;37521;52.020;-1.740;2024-03-22T05:19:39;100106.72;;;7.46;100.00
51452;BME280;37521;52.020;-1.740;2024-03-22T05:22:07;100114.72;;;7.43;100.00
51452;BME280;37521;52.020;-1.740;2024-03-22T05:24:33;100127.03;;;7.41;100.00
51452;BME280;37521;52.020;-1.740;2024-03-22T05:27:01;100128.84;;;7.39;100.00
51452;BME280;37521;52.020;-1.740;2024-03-22T05:29:27;100128.06;;;7.35;100.00
51452;BME280;37521;52.020;-1.740;2024-03-22T05:31:54;100132.00;;;7.22;100.00
51452;BME280;37521;52.020;-1.740;2024-03-22T05:34:22;100142.28;;;7.00;100.00
51452;BME280;37521;52.020;-1.740;2024-03-22T05:36:50;100150.56;;;6.87;100.00
51452;BME280;37521;52.020;-1.740;2024-03-22T05:39:16;100144.91;;;6.71;100.00
51452;BME280;37521;52.020;-1.740;2024-03-22T05:41:43;100146.81;;;6.64;100.00
51452;BME280;37521;52.020;-1.740;2024-03-22T05:44:10;100141.81;;;6.57;100.00
51452;BME280;37521;52.020;-1.740;2024-03-22T05:46:37;100142.78;;;6.52;100.00
51452;BME280;37521;52.020;-1.740;2024-03-22T05:49:04;100135.88;;;6.48;100.00
51452;BME280;37521;52.020;-1.740;2024-03-22T05:51:32;100142.03;;;6.47;100.00
51452;BME280;37521;52.020;-1.740;2024-03-22T05:53:59;100146.47;;;6.45;100.00
51452;BME280;37521;52.020;-1.740;2024-03-22T05:56:26;100132.44;;;6.46;100.00
51452;BME280;37521;52.020;-1.740;2024-03-22T05:58:53;100128.91;;;6.49;100.00
51452;BME280;37521;52.020;-1.740;2024-03-22T06:01:20;100127.16;;;6.48;100.00
51452;BME280;37521;52.020;-1.740;2024-03-22T06:03:47;100115.81;;;6.47;100.00
51452;BME280;37521;52.020;-1.740;2024-03-22T06:06:14;100121.06;;;6.47;100.00
51452;BME280;37521;52.020;-1.740;2024-03-22T06:08:43;100128.00;;;6.48;100.00
51452;BME280;37521;52.020;-1.740;2024-03-22T06:11:11;100110.66;;;6.44;100.00
51452;BME280;37521;52.020;-1.740;2024-03-22T06:13:38;100109.84;;;6.42;100.00
51452;BME280;37521;52.020;-1.740;2024-03-22T06:16:05;100102.91;;;6.40;100.00
51452;BME280;37521;52.020;-1.740;2024-03-22T06:18:32;100101.19;;;6.39;100.00
51452;BME280;37521;52.020;-1.740;2024-03-22T06:21:01;100102.16;;;6.36;100.00
51452;BME280;37521;52.020;-1.740;2024-03-22T06:23:29;100086.41;;;6.36;100.00
51452;BME280;37521;52.020;-1.740;2024-03-22T06:25:58;100095.16;;;6.35;100.00
51452;BME280;37521;52.020;-1.740;2024-03-22T06:28:27;100100.41;;;6.35;100.00
51452;BME280;37521;52.020;-1.740;2024-03-22T06:30:55;100094.22;;;6.38;100.00
51452;BME280;37521;52.020;-1.740;2024-03-22T06:33:21;100091.56;;;6.39;100.00
51452;BME280;37521;52.020;-1.740;2024-03-22T06:35:49;100094.13;;;6.41;100.00
51452;BME280;37521;52.020;-1.740;2024-03-22T06:38:15;100090.59;;;6.42;100.00
51452;BME280;37521;52.020;-1.740;2024-03-22T06:40:42;100094.13;;;6.42;100.00
51452;BME280;37521;52.020;-1.740;2024-03-22T06:43:10;100101.09;;;6.42;100.00
51452;BME280;37521;52.020;-1.740;2024-03-22T06:45:38;100101.94;;;6.44;100.00
51452;BME280;37521;52.020;-1.740;2024-03-22T06:48:04;100105.31;;;6.47;100.00
51452;BME280;37521;52.020;-1.740;2024-03-22T06:50:32;100104.41;;;6.48;100.00
51452;BME280;37521;52.020;-1.740;2024-03-22T06:52:58;100109.66;;;6.48;100.00
51452;BME280;37521;52.020;-1.740;2024-03-22T06:55:26;100100.00;;;6.50;100.00
51452;BME280;37521;52.020;-1.740;2024-03-22T06:57:52;100108.69;;;6.52;100.00
51452;BME280;37521;52.020;-1.740;2024-03-22T07:00:21;100122.59;;;6.54;100.00
51452;BME280;37521;52.020;-1.740;2024-03-22T07:02:47;100120.81;;;6.57;100.00
51452;BME280;37521;52.020;-1.740;2024-03-22T07:05:15;100122.59;;;6.56;100.00
51452;BME280;37521;52.020;-1.740;2024-03-22T07:07:42;100115.56;;;6.57;100.00
51452;BME280;37521;52.020;-1.740;2024-03-22T07:10:09;100119.91;;;6.58;100.00
51452;BME280;37521;52.020;-1.740;2024-03-22T07:12:36;100131.22;;;6.60;100.00
51452;BME280;37521;52.020;-1.740;2024-03-22T07:15:05;100127.69;;;6.61;100.00
51452;BME280;37521;52.020;-1.740;2024-03-22T07:17:33;100136.38;;;6.63;100.00
51452;BME280;37521;52.020;-1.740;2024-03-22T07:20:00;100135.69;;;6.56;100.00
51452;BME280;37521;52.020;-1.740;2024-03-22T07:22:28;100132.22;;;6.55;100.00
51452;BME280;37521;52.020;-1.740;2024-03-22T07:24:55;100132.16;;;6.57;100.00
51452;BME280;37521;52.020;-1.740;2024-03-22T07:27:21;100139.25;;;6.53;100.00
51452;BME280;37521;52.020;-1.740;2024-03-22T07:29:49;100141.97;;;6.50;100.00
51452;BME280;37521;52.020;-1.740;2024-03-22T07:32:15;100143.75;;;6.48;100.00
51452;BME280;37521;52.020;-1.740;2024-03-22T07:34:47;100141.13;;;6.48;100.00
51452;BME280;37521;52.020;-1.740;2024-03-22T07:37:13;100141.19;;;6.47;100.00
51452;BME280;37521;52.020;-1.740;2024-03-22T07:39:41;100140.38;;;6.45;100.00
51452;BME280;37521;52.020;-1.740;2024-03-22T07:42:08;100144.75;;;6.44;100.00
51452;BME280;37521;52.020;-1.740;2024-03-22T07:44:35;100144.75;;;6.44;100.00
51452;BME280;37521;52.020;-1.740;2024-03-22T07:47:01;100143.91;;;6.44;100.00
51452;BME280;37521;52.020;-1.740;2024-03-22T07:49:29;100135.16;;;6.43;100.00
51452;BME280;37521;52.020;-1.740;2024-03-22T07:51:57;100141.22;;;6.45;100.00
51452;BME280;37521;52.020;-1.740;2024-03-22T07:54:24;100146.41;;;6.47;100.00
51452;BME280;37521;52.020;-1.740;2024-03-22T07:56:51;100144.66;;;6.47;100.00
51452;BME280;37521;52.020;-1.740;2024-03-22T07:59:18;100145.44;;;6.51;100.00
51452;BME280;37521;52.020;-1.740;2024-03-22T08:01:45;100139.19;;;6.55;100.00
51452;BME280;37521;52.020;-1.740;2024-03-22T08:04:12;100152.28;;;6.57;100.00
51452;BME280;37521;52.020;-1.740;2024-03-22T08:06:39;100144.44;;;6.55;100.00
51452;BME280;37521;52.020;-1.740;2024-03-22T08:09:08;100160.16;;;6.57;100.00
51452;BME280;37521;52.020;-1.740;2024-03-22T08:11:35;100152.28;;;6.57;100.00
51452;BME280;37521;52.020;-1.740;2024-03-22T08:14:02;100142.50;;;6.62;100.00
51452;BME280;37521;52.020;-1.740;2024-03-22T08:16:29;100148.50;;;6.67;100.00
51452;BME280;37521;52.020;-1.740;2024-03-22T08:18:57;100151.06;;;6.70;100.00
51452;BME280;37521;52.020;-1.740;2024-03-22T08:21:23;100145.81;;;6.70;100.00
51452;BME280;37521;52.020;-1.740;2024-03-22T08:23:51;100148.31;;;6.73;100.00
51452;BME280;37521;52.020;-1.740;2024-03-22T08:26:19;100149.13;;;6.76;100.00
51452;BME280;37521;52.020;-1.740;2024-03-22T08:28:47;100148.25;;;6.76;100.00
51452;BME280;37521;52.020;-1.740;2024-03-22T08:31:14;100151.69;;;6.78;100.00
51452;BME280;37521;52.020;-1.740;2024-03-22T08:33:43;100141.38;;;6.72;100.00
51452;BME280;37521;52.020;-1.740;2024-03-22T08:36:09;100153.56;;;6.73;100.00
51452;BME280;37521;52.020;-1.740;2024-03-22T08:38:36;100151.84;;;6.72;100.00
51452;BME280;37521;52.020;-1.740;2024-03-22T08:41:03;100157.22;;;6.69;100.00
51452;BME280;37521;52.020;-1.740;2024-03-22T08:43:32;100159.00;;;6.67;100.00
51452;BME280;37521;52.020;-1.740;2024-03-22T08:45:58;100173.00;;;6.66;100.00
51452;BME280;37521;52.020;-1.740;2024-03-22T08:48:26;100180.09;;;6.64;100.00
51452;BME280;37521;52.020;-1.740;2024-03-22T08:50:53;100166.06;;;6.65;100.00
51452;BME280;37521;52.020;-1.740;2024-03-22T08:53:20;100168.56;;;6.68;100.00
51452;BME280;37521;52.020;-1.740;2024-03-22T08:55:47;100164.94;;;6.73;100.00
51452;BME280;37521;52.020;-1.740;2024-03-22T08:58:15;100165.72;;;6.77;100.00
51452;BME280;37521;52.020;-1.740;2024-03-22T09:00:44;100170.09;;;6.76;100.00
51452;BME280;37521;52.020;-1.740;2024-03-22T09:03:12;100171.81;;;6.77;100.00
51452;BME280;37521;52.020;-1.740;2024-03-22T09:05:40;100157.78;;;6.78;100.00
51452;BME280;37521;52.020;-1.740;2024-03-22T09:08:08;100164.88;;;6.75;100.00
51452;BME280;37521;52.020;-1.740;2024-03-22T09:10:35;100164.16;;;6.70;100.00
51452;BME280;37521;52.020;-1.740;2024-03-22T09:13:02;100162.34;;;6.72;100.00
51452;BME280;37521;52.020;-1.740;2024-03-22T09:15:29;100155.38;;;6.71;100.00
51452;BME280;37521;52.020;-1.740;2024-03-22T09:17:58;100157.22;;;6.69;100.00
51452;BME280;37521;52.020;-1.740;2024-03-22T09:20:24;100152.94;;;6.65;100.00
51452;BME280;37521;52.020;-1.740;2024-03-22T09:22:52;100157.44;;;6.60;100.00
51452;BME280;37521;52.020;-1.740;2024-03-22T09:25:18;100154.91;;;6.57;100.00
51452;BME280;37521;52.020;-1.740;2024-03-22T09:27:46;100155.63;;;6.62;100.00
51452;BME280;37521;52.020;-1.740;2024-03-22T09:30:13;100158.91;;;6.70;100.00
51452;BME280;37521;52.020;-1.740;2024-03-22T09:32:41;100166.63;;;6.76;100.00
51452;BME280;37521;52.020;-1.740;2024-03-22T09:35:13;100165.63;;;6.80;100.00
51452;BME280;37521;52.020;-1.740;2024-03-22T09:37:41;100164.81;;;6.78;100.00
51452;BME280;37521;52.020;-1.740;2024-03-22T09:40:08;100170.69;;;6.86;100.00
51452;BME280;37521;52.020;-1.740;2024-03-22T09:42:38;100182.84;;;6.90;100.00
51452;BME280;37521;52.020;-1.740;2024-03-22T09:45:08;100182.56;;;6.99;100.00
51452;BME280;37521;52.020;-1.740;2024-03-22T09:47:38;100171.72;;;7.12;100.00
51452;BME280;37521;52.020;-1.740;2024-03-22T09:50:07;100174.88;;;7.23;100.00
51452;BME280;37521;52.020;-1.740;2024-03-22T09:52:38;100178.94;;;7.33;100.00
51452;BME280;37521;52.020;-1.740;2024-03-22T09:55:05;100173.38;;;7.44;100.00
51452;BME280;37521;52.020;-1.740;2024-03-22T09:57:36;100169.72;;;7.48;100.00
51452;BME280;37521;52.020;-1.740;2024-03-22T10:00:06;100174.72;;;7.55;100.00
51452;BME280;37521;52.020;-1.740;2024-03-22T10:02:40;100163.09;;;7.64;100.00
51452;BME280;37521;52.020;-1.740;2024-03-22T10:05:09;100172.75;;;7.63;100.00
51452;BME280;37521;52.020;-1.740;2024-03-22T10:07:39;100175.22;;;7.68;100.00
51452;BME280;37521;52.020;-1.740;2024-03-22T10:10:06;100178.91;;;7.62;100.00
51452;BME280;37521;52.020;-1.740;2024-03-22T10:12:35;100184.38;;;7.56;100.00
51452;BME280;37521;52.020;-1.740;2024-03-22T10:15:02;100187.97;;;7.52;100.00
51452;BME280;37521;52.020;-1.740;2024-03-22T10:17:34;100170.88;;;7.67;100.00
51452;BME280;37521;52.020;-1.740;2024-03-22T10:20:01;100181.53;;;7.89;100.00
51452;BME280;37521;52.020;-1.740;2024-03-22T10:22:29;100168.91;;;8.00;100.00
51452;BME280;37521;52.020;-1.740;2024-03-22T10:24:57;100174.16;;;8.00;100.00
51452;BME280;37521;52.020;-1.740;2024-03-22T10:27:27;100170.81;;;7.95;100.00
51452;BME280;37521;52.020;-1.740;2024-03-22T10:29:56;100169.13;;;7.94;100.00
51452;BME280;37521;52.020;-1.740;2024-03-22T10:32:25;100163.41;;;8.08;100.00
51452;BME280;37521;52.020;-1.740;2024-03-22T10:34:53;100166.69;;;8.14;100.00
51452;BME280;37521;52.020;-1.740;2024-03-22T10:37:20;100168.19;;;8.22;100.00
51452;BME280;37521;52.020;-1.740;2024-03-22T10:39:50;100160.09;;;8.28;100.00
51452;BME280;37521;52.020;-1.740;2024-03-22T10:42:20;100161.53;;;8.38;100.00
51452;BME280;37521;52.020;-1.740;2024-03-22T10:44:50;100160.19;;;8.51;100.00
51452;BME280;37521;52.020;-1.740;2024-03-22T10:47:17;100148.03;;;8.72;100.00
51452;BME280;37521;52.020;-1.740;2024-03-22T10:49:47;100142.69;;;8.73;100.00
51452;BME280;37521;52.020;-1.740;2024-03-22T10:52:14;100141.91;;;8.71;100.00
51452;BME280;37521;52.020;-1.740;2024-03-22T10:54:44;100138.78;;;8.60;100.00
51452;BME280;37521;52.020;-1.740;2024-03-22T10:57:14;100140.72;;;8.55;100.00
51452;BME280;37521;52.020;-1.740;2024-03-22T10:59:46;100139.59;;;8.62;100.00
51452;BME280;37521;52.020;-1.740;2024-03-22T11:02:12;100133.22;;;8.69;100.00
51452;BME280;37521;52.020;-1.740;2024-03-22T11:04:40;100135.25;;;8.61;100.00
51452;BME280;37521;52.020;-1.740;2024-03-22T11:07:07;100132.25;;;8.47;100.00
51452;BME280;37521;52.020;-1.740;2024-03-22T11:09:36;100143.69;;;8.46;100.00
51452;BME280;37521;52.020;-1.740;2024-03-22T11:12:04;100144.50;;;8.48;100.00
51452;BME280;37521;52.020;-1.740;2024-03-22T11:14:32;100146.34;;;8.46;100.00
51452;BME280;37521;52.020;-1.740;2024-03-22T11:17:00;100147.34;;;8.42;100.00
51452;BME280;37521;52.020;-1.740;2024-03-22T11:19:27;100148.66;;;8.29;100.00
51452;BME280;37521;52.020;-1.740;2024-03-22T11:21:54;100139.97;;;8.27;100.00
51452;BME280;37521;52.020;-1.740;2024-03-22T11:24:22;100148.44;;;8.35;100.00
51452;BME280;37521;52.020;-1.740;2024-03-22T11:26:49;100150.09;;;8.39;100.00
51452;BME280;37521;52.020;-1.740;2024-03-22T11:29:16;100148.44;;;8.35;100.00
51452;BME280;37521;52.020;-1.740;2024-03-22T11:31:43;100145.06;;;8.31;100.00
51452;BME280;37521;52.020;-1.740;2024-03-22T11:34:12;100146.91;;;8.29;100.00
51452;BME280;37521;52.020;-1.740;2024-03-22T11:36:39;100141.66;;;8.28;100.00
51452;BME280;37521;52.020;-1.740;2024-03-22T11:39:07;100140.75;;;8.29;100.00
51452;BME280;37521;52.020;-1.740;2024-03-22T11:41:33;100132.38;;;8.44;100.00
51452;BME280;37521;52.020;-1.740;2024-03-22T11:44:02;100128.63;;;8.51;100.00
51452;BME280;37521;52.020;-1.740;2024-03-22T11:46:28;100129.31;;;8.56;100.00
51452;BME280;37521;52.020;-1.740;2024-03-22T11:48:56;100129.13;;;8.61;100.00
51452;BME280;37521;52.020;-1.740;2024-03-22T11:51:25;100125.97;;;8.74;100.00
51452;BME280;37521;52.020;-1.740;2024-03-22T11:53:53;100135.66;;;8.74;100.00
51452;BME280;37521;52.020;-1.740;2024-03-22T11:56:24;100137.28;;;8.78;100.00
51452;BME280;37521;52.020;-1.740;2024-03-22T11:58:58;100140.19;;;8.70;100.00
51452;BME280;37521;52.020;-1.740;2024-03-22T12:01:25;100128.84;;;8.45;100.00
51452;BME280;37521;52.020;-1.740;2024-03-22T12:03:53;100132.97;;;8.26;100.00
51452;BME280;37521;52.020;-1.740;2024-03-22T12:06:20;100129.03;;;8.39;100.00
51452;BME280;37521;52.020;-1.740;2024-03-22T12:08:49;100121.66;;;8.73;100.00
51452;BME280;37521;52.020;-1.740;2024-03-22T12:11:16;100114.41;;;9.25;100.00
51452;BME280;37521;52.020;-1.740;2024-03-22T12:13:45;100113.38;;;9.51;100.00
51452;BME280;37521;52.020;-1.740;2024-03-22T12:16:11;100104.47;;;9.54;100.00
51452;BME280;37521;52.020;-1.740;2024-03-22T12:18:39;100108.59;;;10.03;100.00
51452;BME280;37521;52.020;-1.740;2024-03-22T12:21:05;100103.38;;;10.43;100.00
51452;BME280;37521;52.020;-1.740;2024-03-22T12:23:32;100087.44;;;10.25;100.00
51452;BME280;37521;52.020;-1.740;2024-03-22T12:26:02;100111.63;;;9.72;100.00
51452;BME280;37521;52.020;-1.740;2024-03-22T12:28:30;100098.19;;;9.36;100.00
51452;BME280;37521;52.020;-1.740;2024-03-22T12:30:57;100098.38;;;9.08;100.00
51452;BME280;37521;52.020;-1.740;2024-03-22T12:33:24;100098.03;;;9.39;100.00
51452;BME280;37521;52.020;-1.740;2024-03-22T12:35:51;100088.81;;;10.34;100.00
51452;BME280;37521;52.020;-1.740;2024-03-22T12:38:19;100083.75;;;10.87;100.00
51452;BME280;37521;52.020;-1.740;2024-03-22T12:40:46;100078.03;;;10.97;100.00